Eskdale, Utah
Current Conditions -  °F | °C
As of 9:52 AM on Sunday 23 Nov 2014 (Local Time) from KMLF Reporting Station
Clear Clear  
Wind Chill: 30°   Ceiling: Unl
Heat Index: 36°   Visibility: 10mi
Dew Point: 21°   Wind: 8mph
Humidity: 55%   Direction: 20°NNE
Pressure: 30.25"   Gusts: NA
Location:  39.0932°N, 113.543°W
Report Text: KMLF 231652Z AUTO 02007KT 10SM CLR 02/M06 A3025 RMK AO2 SLP248 T00221061 TSNO
Loading
Personal Weather Stations






























Interactive Weather Map New forecast layout! Learn more

10-Day Weather Forecast

Advertisements
Track Severe Weather on mobile